sensor_id;sensor_type;location;lat;lon;timestamp;P1;durP1;ratioP1;P2;durP2;ratioP2
26484;SDS011;18083;50.560;7.262;2022-08-03T00:01:03;2.37;;;2.20;;
26484;SDS011;18083;50.560;7.262;2022-08-03T00:03:31;2.83;;;2.50;;
26484;SDS011;18083;50.560;7.262;2022-08-03T00:05:59;3.80;;;2.50;;
26484;SDS011;18083;50.560;7.262;2022-08-03T00:08:26;2.92;;;2.08;;
26484;SDS011;18083;50.560;7.262;2022-08-03T00:10:54;3.58;;;2.52;;
26484;SDS011;18083;50.560;7.262;2022-08-03T00:13:21;3.45;;;2.58;;
26484;SDS011;18083;50.560;7.262;2022-08-03T00:15:49;2.85;;;2.58;;
26484;SDS011;18083;50.560;7.262;2022-08-03T00:18:16;2.50;;;2.30;;
26484;SDS011;18083;50.560;7.262;2022-08-03T00:20:43;4.42;;;3.33;;
26484;SDS011;18083;50.560;7.262;2022-08-03T00:23:11;2.80;;;2.60;;
26484;SDS011;18083;50.560;7.262;2022-08-03T00:25:38;2.37;;;2.17;;
26484;SDS011;18083;50.560;7.262;2022-08-03T00:28:05;5.55;;;3.15;;
26484;SDS011;18083;50.560;7.262;2022-08-03T00:30:33;3.10;;;2.62;;
26484;SDS011;18083;50.560;7.262;2022-08-03T00:33:01;5.58;;;3.17;;
26484;SDS011;18083;50.560;7.262;2022-08-03T00:35:29;2.90;;;2.70;;
26484;SDS011;18083;50.560;7.262;2022-08-03T00:37:56;3.40;;;2.77;;
26484;SDS011;18083;50.560;7.262;2022-08-03T00:40:23;2.65;;;2.45;;
26484;SDS011;18083;50.560;7.262;2022-08-03T00:42:55;4.15;;;2.70;;
26484;SDS011;18083;50.560;7.262;2022-08-03T00:45:23;3.92;;;2.83;;
26484;SDS011;18083;50.560;7.262;2022-08-03T00:47:51;3.55;;;2.87;;
26484;SDS011;18083;50.560;7.262;2022-08-03T00:50:19;4.90;;;3.00;;
26484;SDS011;18083;50.560;7.262;2022-08-03T00:52:48;3.87;;;2.50;;
26484;SDS011;18083;50.560;7.262;2022-08-03T00:55:16;5.78;;;2.67;;
26484;SDS011;18083;50.560;7.262;2022-08-03T00:57:44;3.65;;;2.92;;
26484;SDS011;18083;50.560;7.262;2022-08-03T01:00:12;2.70;;;2.50;;
26484;SDS011;18083;50.560;7.262;2022-08-03T01:02:40;2.77;;;2.58;;
26484;SDS011;18083;50.560;7.262;2022-08-03T01:05:08;2.67;;;2.45;;
26484;SDS011;18083;50.560;7.262;2022-08-03T01:07:39;2.90;;;2.70;;
26484;SDS011;18083;50.560;7.262;2022-08-03T01:10:10;3.02;;;2.80;;
26484;SDS011;18083;50.560;7.262;2022-08-03T01:12:37;2.90;;;2.42;;
26484;SDS011;18083;50.560;7.262;2022-08-03T01:15:10;6.20;;;2.90;;
26484;SDS011;18083;50.560;7.262;2022-08-03T01:17:39;5.05;;;2.90;;
26484;SDS011;18083;50.560;7.262;2022-08-03T01:20:06;4.45;;;2.90;;
26484;SDS011;18083;50.560;7.262;2022-08-03T01:25:13;3.35;;;2.90;;
26484;SDS011;18083;50.560;7.262;2022-08-03T01:30:07;3.10;;;2.65;;
26484;SDS011;18083;50.560;7.262;2022-08-03T01:32:54;3.83;;;2.58;;
26484;SDS011;18083;50.560;7.262;2022-08-03T01:35:31;2.95;;;2.65;;
26484;SDS011;18083;50.560;7.262;2022-08-03T01:37:56;2.98;;;2.65;;
26484;SDS011;18083;50.560;7.262;2022-08-03T01:40:24;2.92;;;2.72;;
26484;SDS011;18083;50.560;7.262;2022-08-03T01:42:56;4.08;;;2.65;;
26484;SDS011;18083;50.560;7.262;2022-08-03T01:45:24;4.50;;;3.27;;
26484;SDS011;18083;50.560;7.262;2022-08-03T01:47:53;4.78;;;3.37;;
26484;SDS011;18083;50.560;7.262;2022-08-03T01:50:23;3.25;;;2.85;;
26484;SDS011;18083;50.560;7.262;2022-08-03T01:52:50;2.75;;;2.55;;
26484;SDS011;18083;50.560;7.262;2022-08-03T01:55:19;2.90;;;2.70;;
26484;SDS011;18083;50.560;7.262;2022-08-03T01:57:48;5.45;;;2.95;;
26484;SDS011;18083;50.560;7.262;2022-08-03T02:00:16;3.30;;;3.00;;
26484;SDS011;18083;50.560;7.262;2022-08-03T02:02:45;7.92;;;4.42;;
26484;SDS011;18083;50.560;7.262;2022-08-03T02:05:13;3.80;;;2.90;;
26484;SDS011;18083;50.560;7.262;2022-08-03T02:07:41;4.30;;;3.72;;
26484;SDS011;18083;50.560;7.262;2022-08-03T02:10:08;5.72;;;2.95;;
26484;SDS011;18083;50.560;7.262;2022-08-03T02:12:37;3.85;;;3.40;;
26484;SDS011;18083;50.560;7.262;2022-08-03T02:15:06;3.52;;;3.22;;
26484;SDS011;18083;50.560;7.262;2022-08-03T02:17:33;3.45;;;3.10;;
26484;SDS011;18083;50.560;7.262;2022-08-03T02:20:01;3.10;;;2.80;;
26484;SDS011;18083;50.560;7.262;2022-08-03T02:22:29;3.25;;;2.98;;
26484;SDS011;18083;50.560;7.262;2022-08-03T02:24:57;4.15;;;2.77;;
26484;SDS011;18083;50.560;7.262;2022-08-03T02:27:25;3.08;;;2.77;;
26484;SDS011;18083;50.560;7.262;2022-08-03T02:29:54;3.30;;;3.10;;
26484;SDS011;18083;50.560;7.262;2022-08-03T02:32:29;3.17;;;2.87;;
26484;SDS011;18083;50.560;7.262;2022-08-03T02:34:57;3.62;;;2.52;;
26484;SDS011;18083;50.560;7.262;2022-08-03T02:37:26;3.12;;;2.58;;
26484;SDS011;18083;50.560;7.262;2022-08-03T02:40:00;3.80;;;3.20;;
26484;SDS011;18083;50.560;7.262;2022-08-03T02:42:23;2.80;;;2.60;;
26484;SDS011;18083;50.560;7.262;2022-08-03T02:44:51;4.85;;;2.98;;
26484;SDS011;18083;50.560;7.262;2022-08-03T02:47:19;4.60;;;3.10;;
26484;SDS011;18083;50.560;7.262;2022-08-03T02:49:47;3.40;;;2.90;;
26484;SDS011;18083;50.560;7.262;2022-08-03T02:52:16;3.85;;;3.50;;
26484;SDS011;18083;50.560;7.262;2022-08-03T02:54:44;3.70;;;3.37;;
26484;SDS011;18083;50.560;7.262;2022-08-03T02:57:12;4.22;;;3.10;;
26484;SDS011;18083;50.560;7.262;2022-08-03T02:59:40;3.62;;;3.22;;
26484;SDS011;18083;50.560;7.262;2022-08-03T03:02:08;4.58;;;3.37;;
26484;SDS011;18083;50.560;7.262;2022-08-03T03:04:36;3.05;;;2.85;;
26484;SDS011;18083;50.560;7.262;2022-08-03T03:07:04;6.80;;;3.37;;
26484;SDS011;18083;50.560;7.262;2022-08-03T03:09:32;3.70;;;3.40;;
26484;SDS011;18083;50.560;7.262;2022-08-03T03:11:59;2.77;;;2.58;;
26484;SDS011;18083;50.560;7.262;2022-08-03T03:14:27;3.00;;;2.80;;
26484;SDS011;18083;50.560;7.262;2022-08-03T03:16:55;5.97;;;3.27;;
26484;SDS011;18083;50.560;7.262;2022-08-03T03:19:23;7.33;;;3.58;;
26484;SDS011;18083;50.560;7.262;2022-08-03T03:21:51;2.90;;;2.62;;
26484;SDS011;18083;50.560;7.262;2022-08-03T03:24:19;4.30;;;3.17;;
26484;SDS011;18083;50.560;7.262;2022-08-03T03:26:46;2.83;;;2.62;;
26484;SDS011;18083;50.560;7.262;2022-08-03T03:29:14;6.10;;;3.30;;
26484;SDS011;18083;50.560;7.262;2022-08-03T03:31:42;8.30;;;4.97;;
26484;SDS011;18083;50.560;7.262;2022-08-03T03:34:09;4.50;;;3.40;;
26484;SDS011;18083;50.560;7.262;2022-08-03T03:36:36;4.12;;;3.08;;
26484;SDS011;18083;50.560;7.262;2022-08-03T03:39:04;3.45;;;3.15;;
26484;SDS011;18083;50.560;7.262;2022-08-03T03:41:31;4.37;;;3.08;;
26484;SDS011;18083;50.560;7.262;2022-08-03T03:43:58;5.45;;;3.45;;
26484;SDS011;18083;50.560;7.262;2022-08-03T03:46:26;7.87;;;4.17;;
26484;SDS011;18083;50.560;7.262;2022-08-03T03:48:53;4.15;;;3.20;;
26484;SDS011;18083;50.560;7.262;2022-08-03T03:51:21;3.75;;;3.35;;
26484;SDS011;18083;50.560;7.262;2022-08-03T03:53:55;3.42;;;3.12;;
26484;SDS011;18083;50.560;7.262;2022-08-03T03:56:22;6.50;;;3.35;;
26484;SDS011;18083;50.560;7.262;2022-08-03T03:58:50;4.80;;;3.52;;
26484;SDS011;18083;50.560;7.262;2022-08-03T04:01:17;4.00;;;3.60;;
26484;SDS011;18083;50.560;7.262;2022-08-03T04:03:45;3.15;;;2.85;;
26484;SDS011;18083;50.560;7.262;2022-08-03T04:06:12;4.03;;;3.62;;
26484;SDS011;18083;50.560;7.262;2022-08-03T04:08:59;4.92;;;3.42;;
26484;SDS011;18083;50.560;7.262;2022-08-03T04:14:38;6.95;;;3.75;;
26484;SDS011;18083;50.560;7.262;2022-08-03T04:17:07;4.53;;;4.08;;
26484;SDS011;18083;50.560;7.262;2022-08-03T04:19:48;4.53;;;3.62;;
26484;SDS011;18083;50.560;7.262;2022-08-03T04:22:10;3.85;;;3.45;;
26484;SDS011;18083;50.560;7.262;2022-08-03T04:24:39;7.87;;;4.22;;
26484;SDS011;18083;50.560;7.262;2022-08-03T04:27:08;6.47;;;3.45;;
26484;SDS011;18083;50.560;7.262;2022-08-03T04:29:36;7.65;;;3.47;;
26484;SDS011;18083;50.560;7.262;2022-08-03T04:32:05;5.40;;;3.52;;
26484;SDS011;18083;50.560;7.262;2022-08-03T04:34:33;6.08;;;3.77;;
26484;SDS011;18083;50.560;7.262;2022-08-03T04:37:02;6.15;;;3.45;;
26484;SDS011;18083;50.560;7.262;2022-08-03T04:39:30;7.17;;;3.80;;
26484;SDS011;18083;50.560;7.262;2022-08-03T04:41:59;5.58;;;3.15;;
26484;SDS011;18083;50.560;7.262;2022-08-03T04:44:26;11.53;;;4.17;;
26484;SDS011;18083;50.560;7.262;2022-08-03T04:46:55;5.08;;;3.40;;
26484;SDS011;18083;50.560;7.262;2022-08-03T04:49:23;4.08;;;3.15;;
26484;SDS011;18083;50.560;7.262;2022-08-03T04:51:50;4.47;;;3.30;;
26484;SDS011;18083;50.560;7.262;2022-08-03T04:54:18;4.10;;;3.65;;
26484;SDS011;18083;50.560;7.262;2022-08-03T04:56:46;6.47;;;3.85;;
26484;SDS011;18083;50.560;7.262;2022-08-03T04:59:13;4.55;;;3.55;;
26484;SDS011;18083;50.560;7.262;2022-08-03T05:01:42;4.20;;;3.55;;
26484;SDS011;18083;50.560;7.262;2022-08-03T05:04:10;5.95;;;3.72;;
26484;SDS011;18083;50.560;7.262;2022-08-03T05:06:37;7.10;;;3.65;;
26484;SDS011;18083;50.560;7.262;2022-08-03T05:09:04;3.90;;;3.55;;
26484;SDS011;18083;50.560;7.262;2022-08-03T05:11:32;8.25;;;4.25;;
26484;SDS011;18083;50.560;7.262;2022-08-03T05:14:02;8.38;;;4.33;;
26484;SDS011;18083;50.560;7.262;2022-08-03T05:16:28;5.58;;;3.75;;
26484;SDS011;18083;50.560;7.262;2022-08-03T05:18:59;9.60;;;4.40;;
26484;SDS011;18083;50.560;7.262;2022-08-03T05:21:26;7.10;;;3.50;;
26484;SDS011;18083;50.560;7.262;2022-08-03T05:23:53;3.87;;;3.25;;
26484;SDS011;18083;50.560;7.262;2022-08-03T05:26:22;4.20;;;3.62;;
26484;SDS011;18083;50.560;7.262;2022-08-03T05:28:50;11.65;;;4.17;;
26484;SDS011;18083;50.560;7.262;2022-08-03T05:31:18;5.33;;;4.03;;
26484;SDS011;18083;50.560;7.262;2022-08-03T05:33:45;6.60;;;3.95;;
26484;SDS011;18083;50.560;7.262;2022-08-03T05:36:15;4.62;;;2.67;;
26484;SDS011;18083;50.560;7.262;2022-08-03T05:38:44;6.25;;;2.77;;
26484;SDS011;18083;50.560;7.262;2022-08-03T05:52:48;4.72;;;3.80;;
26484;SDS011;18083;50.560;7.262;2022-08-03T05:55:15;6.45;;;4.28;;
26484;SDS011;18083;50.560;7.262;2022-08-03T05:57:44;8.30;;;4.22;;
26484;SDS011;18083;50.560;7.262;2022-08-03T06:00:12;4.25;;;3.35;;
26484;SDS011;18083;50.560;7.262;2022-08-03T06:02:39;5.80;;;3.90;;
26484;SDS011;18083;50.560;7.262;2022-08-03T06:05:07;6.17;;;4.05;;
26484;SDS011;18083;50.560;7.262;2022-08-03T06:07:35;7.42;;;3.27;;
26484;SDS011;18083;50.560;7.262;2022-08-03T06:10:03;6.83;;;4.30;;
26484;SDS011;18083;50.560;7.262;2022-08-03T06:12:30;6.97;;;4.12;;
26484;SDS011;18083;50.560;7.262;2022-08-03T06:14:59;8.00;;;4.58;;
26484;SDS011;18083;50.560;7.262;2022-08-03T06:17:26;7.25;;;4.35;;
26484;SDS011;18083;50.560;7.262;2022-08-03T06:19:57;4.22;;;3.83;;
26484;SDS011;18083;50.560;7.262;2022-08-03T06:22:24;7.10;;;3.80;;
26484;SDS011;18083;50.560;7.262;2022-08-03T06:24:52;6.35;;;3.77;;
26484;SDS011;18083;50.560;7.262;2022-08-03T06:27:19;4.10;;;3.75;;
26484;SDS011;18083;50.560;7.262;2022-08-03T06:29:46;5.28;;;3.90;;
26484;SDS011;18083;50.560;7.262;2022-08-03T06:32:14;6.67;;;3.92;;
26484;SDS011;18083;50.560;7.262;2022-08-03T06:34:41;5.30;;;4.08;;
26484;SDS011;18083;50.560;7.262;2022-08-03T06:37:09;3.75;;;3.45;;
26484;SDS011;18083;50.560;7.262;2022-08-03T06:39:37;4.28;;;3.85;;
26484;SDS011;18083;50.560;7.262;2022-08-03T06:42:04;3.67;;;3.30;;
26484;SDS011;18083;50.560;7.262;2022-08-03T06:44:32;6.47;;;4.50;;
26484;SDS011;18083;50.560;7.262;2022-08-03T06:46:59;3.98;;;3.58;;
26484;SDS011;18083;50.560;7.262;2022-08-03T06:49:26;7.45;;;3.77;;
26484;SDS011;18083;50.560;7.262;2022-08-03T06:51:53;5.85;;;3.83;;
26484;SDS011;18083;50.560;7.262;2022-08-03T06:54:22;5.90;;;4.05;;
26484;SDS011;18083;50.560;7.262;2022-08-03T06:56:49;9.03;;;3.60;;
26484;SDS011;18083;50.560;7.262;2022-08-03T06:59:17;8.60;;;3.47;;
26484;SDS011;18083;50.560;7.262;2022-08-03T07:01:44;6.53;;;3.75;;
26484;SDS011;18083;50.560;7.262;2022-08-03T07:04:12;5.00;;;4.00;;
26484;SDS011;18083;50.560;7.262;2022-08-03T07:06:39;5.42;;;4.03;;
26484;SDS011;18083;50.560;7.262;2022-08-03T07:09:06;3.95;;;3.40;;
26484;SDS011;18083;50.560;7.262;2022-08-03T07:11:34;8.10;;;3.72;;
26484;SDS011;18083;50.560;7.262;2022-08-03T07:14:01;5.55;;;3.70;;
26484;SDS011;18083;50.560;7.262;2022-08-03T07:16:29;4.78;;;4.00;;
26484;SDS011;18083;50.560;7.262;2022-08-03T07:18:56;6.08;;;4.05;;
26484;SDS011;18083;50.560;7.262;2022-08-03T07:21:24;6.37;;;4.12;;
26484;SDS011;18083;50.560;7.262;2022-08-03T07:23:51;5.30;;;3.80;;
26484;SDS011;18083;50.560;7.262;2022-08-03T07:26:19;7.17;;;4.58;;
26484;SDS011;18083;50.560;7.262;2022-08-03T07:28:46;5.80;;;4.22;;
26484;SDS011;18083;50.560;7.262;2022-08-03T07:31:14;4.53;;;4.08;;
26484;SDS011;18083;50.560;7.262;2022-08-03T07:38:54;5.62;;;3.70;;
26484;SDS011;18083;50.560;7.262;2022-08-03T07:49:12;14.28;;;3.42;;
26484;SDS011;18083;50.560;7.262;2022-08-03T07:54:26;3.87;;;3.33;;
26484;SDS011;18083;50.560;7.262;2022-08-03T07:59:30;3.83;;;3.45;;
26484;SDS011;18083;50.560;7.262;2022-08-03T08:01:58;4.78;;;3.25;;
26484;SDS011;18083;50.560;7.262;2022-08-03T08:09:57;6.40;;;3.02;;
26484;SDS011;18083;50.560;7.262;2022-08-03T08:12:25;7.35;;;3.67;;
26484;SDS011;18083;50.560;7.262;2022-08-03T08:14:52;7.15;;;3.52;;
26484;SDS011;18083;50.560;7.262;2022-08-03T08:17:19;5.72;;;3.92;;
26484;SDS011;18083;50.560;7.262;2022-08-03T08:19:47;4.78;;;3.42;;
26484;SDS011;18083;50.560;7.262;2022-08-03T08:22:14;4.75;;;3.20;;
26484;SDS011;18083;50.560;7.262;2022-08-03T08:24:41;6.78;;;3.02;;
26484;SDS011;18083;50.560;7.262;2022-08-03T08:27:09;7.10;;;2.83;;
26484;SDS011;18083;50.560;7.262;2022-08-03T08:29:37;3.92;;;2.85;;
26484;SDS011;18083;50.560;7.262;2022-08-03T08:32:04;3.52;;;3.00;;
26484;SDS011;18083;50.560;7.262;2022-08-03T08:34:32;5.67;;;3.30;;
26484;SDS011;18083;50.560;7.262;2022-08-03T08:36:59;6.75;;;3.20;;
26484;SDS011;18083;50.560;7.262;2022-08-03T08:39:27;3.25;;;2.75;;
26484;SDS011;18083;50.560;7.262;2022-08-03T08:41:54;3.47;;;2.70;;
26484;SDS011;18083;50.560;7.262;2022-08-03T08:44:22;3.47;;;3.17;;
26484;SDS011;18083;50.560;7.262;2022-08-03T08:46:49;9.40;;;3.67;;
26484;SDS011;18083;50.560;7.262;2022-08-03T08:49:18;7.20;;;3.17;;
26484;SDS011;18083;50.560;7.262;2022-08-03T08:51:47;11.40;;;4.05;;
26484;SDS011;18083;50.560;7.262;2022-08-03T08:54:17;10.93;;;2.87;;
26484;SDS011;18083;50.560;7.262;2022-08-03T08:56:44;3.33;;;2.90;;
26484;SDS011;18083;50.560;7.262;2022-08-03T08:59:13;7.03;;;2.75;;
26484;SDS011;18083;50.560;7.262;2022-08-03T09:01:40;2.60;;;2.40;;
26484;SDS011;18083;50.560;7.262;2022-08-03T09:04:08;6.53;;;2.42;;
26484;SDS011;18083;50.560;7.262;2022-08-03T09:06:36;3.83;;;2.20;;
26484;SDS011;18083;50.560;7.262;2022-08-03T09:09:05;3.12;;;2.22;;
26484;SDS011;18083;50.560;7.262;2022-08-03T09:11:33;4.90;;;2.30;;
26484;SDS011;18083;50.560;7.262;2022-08-03T09:14:01;3.12;;;2.47;;
26484;SDS011;18083;50.560;7.262;2022-08-03T09:16:28;2.33;;;2.12;;
26484;SDS011;18083;50.560;7.262;2022-08-03T09:18:57;6.12;;;3.02;;
26484;SDS011;18083;50.560;7.262;2022-08-03T09:21:26;5.05;;;2.70;;
26484;SDS011;18083;50.560;7.262;2022-08-03T09:23:56;3.98;;;2.90;;
26484;SDS011;18083;50.560;7.262;2022-08-03T09:26:24;2.80;;;2.60;;
26484;SDS011;18083;50.560;7.262;2022-08-03T09:28:55;3.80;;;2.10;;
26484;SDS011;18083;50.560;7.262;2022-08-03T09:31:32;2.50;;;1.70;;
26484;SDS011;18083;50.560;7.262;2022-08-03T09:33:59;2.08;;;1.82;;
26484;SDS011;18083;50.560;7.262;2022-08-03T09:36:33;3.00;;;2.40;;
26484;SDS011;18083;50.560;7.262;2022-08-03T09:39:01;5.50;;;2.77;;
26484;SDS011;18083;50.560;7.262;2022-08-03T09:41:30;3.05;;;1.80;;
26484;SDS011;18083;50.560;7.262;2022-08-03T09:43:58;2.60;;;2.12;;
26484;SDS011;18083;50.560;7.262;2022-08-03T09:46:25;3.58;;;2.22;;
26484;SDS011;18083;50.560;7.262;2022-08-03T09:49:07;4.17;;;2.30;;
26484;SDS011;18083;50.560;7.262;2022-08-03T09:51:23;3.10;;;2.30;;
26484;SDS011;18083;50.560;7.262;2022-08-03T09:53:51;4.47;;;2.15;;
26484;SDS011;18083;50.560;7.262;2022-08-03T09:56:18;4.90;;;2.35;;
26484;SDS011;18083;50.560;7.262;2022-08-03T09:58:46;3.10;;;2.15;;
26484;SDS011;18083;50.560;7.262;2022-08-03T10:01:13;4.40;;;2.50;;
26484;SDS011;18083;50.560;7.262;2022-08-03T10:03:41;3.72;;;2.52;;
26484;SDS011;18083;50.560;7.262;2022-08-03T10:06:17;2.35;;;2.15;;
26484;SDS011;18083;50.560;7.262;2022-08-03T10:08:45;3.58;;;2.75;;
26484;SDS011;18083;50.560;7.262;2022-08-03T10:11:13;3.47;;;2.60;;
26484;SDS011;18083;50.560;7.262;2022-08-03T10:13:41;2.47;;;2.27;;
26484;SDS011;18083;50.560;7.262;2022-08-03T10:16:09;2.15;;;1.95;;
26484;SDS011;18083;50.560;7.262;2022-08-03T10:18:36;7.20;;;3.17;;
26484;SDS011;18083;50.560;7.262;2022-08-03T10:21:05;9.08;;;2.65;;
26484;SDS011;18083;50.560;7.262;2022-08-03T10:23:37;2.98;;;2.45;;
26484;SDS011;18083;50.560;7.262;2022-08-03T10:26:02;4.08;;;2.42;;
26484;SDS011;18083;50.560;7.262;2022-08-03T10:28:33;2.87;;;2.67;;
26484;SDS011;18083;50.560;7.262;2022-08-03T10:30:59;7.05;;;2.98;;
26484;SDS011;18083;50.560;7.262;2022-08-03T10:33:27;8.13;;;2.85;;
26484;SDS011;18083;50.560;7.262;2022-08-03T10:35:56;3.30;;;2.37;;
26484;SDS011;18083;50.560;7.262;2022-08-03T10:38:33;3.83;;;3.00;;
26484;SDS011;18083;50.560;7.262;2022-08-03T10:40:54;2.72;;;2.52;;
26484;SDS011;18083;50.560;7.262;2022-08-03T10:43:27;2.72;;;2.40;;
26484;SDS011;18083;50.560;7.262;2022-08-03T10:45:50;3.27;;;2.20;;
26484;SDS011;18083;50.560;7.262;2022-08-03T10:48:18;5.70;;;3.20;;
26484;SDS011;18083;50.560;7.262;2022-08-03T10:50:47;6.42;;;2.42;;
26484;SDS011;18083;50.560;7.262;2022-08-03T10:53:14;3.67;;;2.92;;
26484;SDS011;18083;50.560;7.262;2022-08-03T10:55:46;4.65;;;2.80;;
26484;SDS011;18083;50.560;7.262;2022-08-03T11:01:07;5.00;;;3.05;;
26484;SDS011;18083;50.560;7.262;2022-08-03T11:06:19;4.70;;;2.67;;
26484;SDS011;18083;50.560;7.262;2022-08-03T11:08:47;6.00;;;2.70;;
26484;SDS011;18083;50.560;7.262;2022-08-03T11:14:00;4.72;;;2.40;;
26484;SDS011;18083;50.560;7.262;2022-08-03T11:16:31;3.35;;;2.30;;
26484;SDS011;18083;50.560;7.262;2022-08-03T11:19:02;3.33;;;3.00;;
26484;SDS011;18083;50.560;7.262;2022-08-03T11:27:15;4.67;;;3.05;;
26484;SDS011;18083;50.560;7.262;2022-08-03T11:43:08;2.47;;;2.27;;
26484;SDS011;18083;50.560;7.262;2022-08-03T11:45:35;2.10;;;1.90;;
26484;SDS011;18083;50.560;7.262;2022-08-03T11:48:13;5.37;;;1.95;;
26484;SDS011;18083;50.560;7.262;2022-08-03T11:50:41;2.87;;;2.37;;
26484;SDS011;18083;50.560;7.262;2022-08-03T11:53:18;3.77;;;1.90;;
26484;SDS011;18083;50.560;7.262;2022-08-03T11:55:43;1.90;;;1.80;;
26484;SDS011;18083;50.560;7.262;2022-08-03T11:58:18;4.10;;;2.10;;
26484;SDS011;18083;50.560;7.262;2022-08-03T12:00:46;2.35;;;2.17;;
26484;SDS011;18083;50.560;7.262;2022-08-03T12:03:15;3.02;;;2.47;;
26484;SDS011;18083;50.560;7.262;2022-08-03T12:05:50;3.25;;;1.67;;
26484;SDS011;18083;50.560;7.262;2022-08-03T12:10:56;2.40;;;1.75;;
26484;SDS011;18083;50.560;7.262;2022-08-03T12:13:23;2.47;;;2.27;;
26484;SDS011;18083;50.560;7.262;2022-08-03T12:15:55;4.80;;;2.00;;
26484;SDS011;18083;50.560;7.262;2022-08-03T12:18:24;2.42;;;2.22;;
26484;SDS011;18083;50.560;7.262;2022-08-03T12:20:52;3.25;;;2.45;;
26484;SDS011;18083;50.560;7.262;2022-08-03T12:23:19;6.72;;;2.00;;
26484;SDS011;18083;50.560;7.262;2022-08-03T12:25:47;2.00;;;1.87;;
26484;SDS011;18083;50.560;7.262;2022-08-03T12:28:18;2.12;;;1.95;;
26484;SDS011;18083;50.560;7.262;2022-08-03T12:30:48;4.03;;;2.12;;
26484;SDS011;18083;50.560;7.262;2022-08-03T12:33:25;2.87;;;2.15;;
26484;SDS011;18083;50.560;7.262;2022-08-03T12:36:06;3.62;;;2.30;;
26484;SDS011;18083;50.560;7.262;2022-08-03T12:38:34;4.10;;;2.58;;
26484;SDS011;18083;50.560;7.262;2022-08-03T12:41:05;5.58;;;1.98;;
26484;SDS011;18083;50.560;7.262;2022-08-03T12:43:30;3.40;;;2.45;;
26484;SDS011;18083;50.560;7.262;2022-08-03T12:46:11;2.27;;;2.08;;
26484;SDS011;18083;50.560;7.262;2022-08-03T12:48:57;4.28;;;2.17;;
26484;SDS011;18083;50.560;7.262;2022-08-03T12:51:25;9.03;;;2.00;;
26484;SDS011;18083;50.560;7.262;2022-08-03T12:53:53;6.37;;;2.17;;
26484;SDS011;18083;50.560;7.262;2022-08-03T12:56:20;2.30;;;2.20;;
26484;SDS011;18083;50.560;7.262;2022-08-03T12:58:48;2.33;;;2.10;;
26484;SDS011;18083;50.560;7.262;2022-08-03T13:01:18;4.10;;;1.82;;
26484;SDS011;18083;50.560;7.262;2022-08-03T13:03:48;1.95;;;1.75;;
26484;SDS011;18083;50.560;7.262;2022-08-03T13:06:20;4.78;;;2.02;;
26484;SDS011;18083;50.560;7.262;2022-08-03T13:08:45;3.83;;;1.98;;
26484;SDS011;18083;50.560;7.262;2022-08-03T13:11:17;4.78;;;2.15;;
26484;SDS011;18083;50.560;7.262;2022-08-03T13:13:45;2.98;;;2.77;;
26484;SDS011;18083;50.560;7.262;2022-08-03T13:16:13;2.37;;;2.08;;
26484;SDS011;18083;50.560;7.262;2022-08-03T13:18:40;2.95;;;2.30;;
26484;SDS011;18083;50.560;7.262;2022-08-03T13:21:07;6.37;;;5.83;;
26484;SDS011;18083;50.560;7.262;2022-08-03T13:23:35;3.75;;;2.00;;
26484;SDS011;18083;50.560;7.262;2022-08-03T13:26:02;4.25;;;1.80;;
26484;SDS011;18083;50.560;7.262;2022-08-03T13:28:29;4.72;;;1.90;;
26484;SDS011;18083;50.560;7.262;2022-08-03T13:30:57;3.60;;;2.02;;
26484;SDS011;18083;50.560;7.262;2022-08-03T13:33:25;2.17;;;1.92;;
26484;SDS011;18083;50.560;7.262;2022-08-03T13:35:53;5.55;;;2.02;;
26484;SDS011;18083;50.560;7.262;2022-08-03T13:38:20;5.00;;;2.50;;
26484;SDS011;18083;50.560;7.262;2022-08-03T13:40:48;2.52;;;2.00;;
26484;SDS011;18083;50.560;7.262;2022-08-03T13:43:17;3.25;;;2.10;;
26484;SDS011;18083;50.560;7.262;2022-08-03T13:45:45;3.83;;;2.17;;
26484;SDS011;18083;50.560;7.262;2022-08-03T13:48:12;3.77;;;2.08;;
26484;SDS011;18083;50.560;7.262;2022-08-03T13:50:40;3.42;;;2.40;;
26484;SDS011;18083;50.560;7.262;2022-08-03T13:53:07;1.80;;;1.70;;
26484;SDS011;18083;50.560;7.262;2022-08-03T13:55:34;3.37;;;2.55;;
26484;SDS011;18083;50.560;7.262;2022-08-03T13:58:02;6.72;;;6.22;;
26484;SDS011;18083;50.560;7.262;2022-08-03T14:00:29;3.83;;;2.55;;
26484;SDS011;18083;50.560;7.262;2022-08-03T14:02:57;7.85;;;4.47;;
26484;SDS011;18083;50.560;7.262;2022-08-03T14:05:24;5.40;;;1.72;;
26484;SDS011;18083;50.560;7.262;2022-08-03T14:07:51;4.37;;;2.35;;
26484;SDS011;18083;50.560;7.262;2022-08-03T14:10:19;4.70;;;2.12;;
26484;SDS011;18083;50.560;7.262;2022-08-03T14:12:46;2.08;;;1.87;;
26484;SDS011;18083;50.560;7.262;2022-08-03T14:15:13;2.40;;;1.98;;
26484;SDS011;18083;50.560;7.262;2022-08-03T14:17:41;6.62;;;4.53;;
26484;SDS011;18083;50.560;7.262;2022-08-03T14:20:08;1.87;;;1.77;;
26484;SDS011;18083;50.560;7.262;2022-08-03T14:22:38;3.50;;;1.98;;
26484;SDS011;18083;50.560;7.262;2022-08-03T14:25:05;2.65;;;2.15;;
26484;SDS011;18083;50.560;7.262;2022-08-03T14:27:33;2.25;;;1.90;;
26484;SDS011;18083;50.560;7.262;2022-08-03T14:30:00;1.80;;;1.67;;
26484;SDS011;18083;50.560;7.262;2022-08-03T14:32:27;1.87;;;1.77;;
26484;SDS011;18083;50.560;7.262;2022-08-03T14:34:55;2.47;;;1.82;;
26484;SDS011;18083;50.560;7.262;2022-08-03T14:37:22;2.37;;;2.15;;
26484;SDS011;18083;50.560;7.262;2022-08-03T14:39:49;1.70;;;1.60;;
26484;SDS011;18083;50.560;7.262;2022-08-03T14:42:17;1.98;;;1.85;;
26484;SDS011;18083;50.560;7.262;2022-08-03T14:44:45;2.72;;;1.98;;
26484;SDS011;18083;50.560;7.262;2022-08-03T14:47:13;5.72;;;1.87;;
26484;SDS011;18083;50.560;7.262;2022-08-03T14:49:40;1.87;;;1.70;;
26484;SDS011;18083;50.560;7.262;2022-08-03T14:52:08;3.40;;;2.15;;
26484;SDS011;18083;50.560;7.262;2022-08-03T14:54:35;3.75;;;1.77;;
26484;SDS011;18083;50.560;7.262;2022-08-03T14:57:02;2.00;;;1.80;;
26484;SDS011;18083;50.560;7.262;2022-08-03T14:59:30;5.03;;;1.57;;
26484;SDS011;18083;50.560;7.262;2022-08-03T15:01:57;4.42;;;1.95;;
26484;SDS011;18083;50.560;7.262;2022-08-03T15:07:28;2.15;;;1.70;;
26484;SDS011;18083;50.560;7.262;2022-08-03T15:09:55;2.85;;;1.47;;
26484;SDS011;18083;50.560;7.262;2022-08-03T15:12:23;3.60;;;1.75;;
26484;SDS011;18083;50.560;7.262;2022-08-03T15:14:50;3.62;;;1.70;;
26484;SDS011;18083;50.560;7.262;2022-08-03T15:17:17;1.62;;;1.52;;
26484;SDS011;18083;50.560;7.262;2022-08-03T15:19:45;2.00;;;1.90;;
26484;SDS011;18083;50.560;7.262;2022-08-03T15:25:15;2.52;;;2.00;;
26484;SDS011;18083;50.560;7.262;2022-08-03T15:27:42;2.65;;;1.98;;
26484;SDS011;18083;50.560;7.262;2022-08-03T15:30:10;3.60;;;1.90;;
26484;SDS011;18083;50.560;7.262;2022-08-03T15:32:37;1.75;;;1.65;;
26484;SDS011;18083;50.560;7.262;2022-08-03T15:35:05;1.87;;;1.77;;
26484;SDS011;18083;50.560;7.262;2022-08-03T15:37:32;2.00;;;1.80;;
26484;SDS011;18083;50.560;7.262;2022-08-03T15:39:59;3.15;;;1.42;;
26484;SDS011;18083;50.560;7.262;2022-08-03T15:42:28;3.30;;;1.95;;
26484;SDS011;18083;50.560;7.262;2022-08-03T15:44:55;5.83;;;2.17;;
26484;SDS011;18083;50.560;7.262;2022-08-03T15:47:22;3.25;;;1.52;;
26484;SDS011;18083;50.560;7.262;2022-08-03T15:49:50;2.05;;;1.82;;
26484;SDS011;18083;50.560;7.262;2022-08-03T15:52:17;4.12;;;1.87;;
26484;SDS011;18083;50.560;7.262;2022-08-03T15:54:44;4.17;;;2.02;;
26484;SDS011;18083;50.560;7.262;2022-08-03T15:57:12;8.90;;;1.77;;
26484;SDS011;18083;50.560;7.262;2022-08-03T15:59:39;3.90;;;2.75;;
26484;SDS011;18083;50.560;7.262;2022-08-03T16:02:07;4.53;;;1.37;;
26484;SDS011;18083;50.560;7.262;2022-08-03T16:04:34;1.47;;;1.37;;
26484;SDS011;18083;50.560;7.262;2022-08-03T16:07:02;2.15;;;1.95;;
26484;SDS011;18083;50.560;7.262;2022-08-03T16:09:29;10.15;;;1.57;;
26484;SDS011;18083;50.560;7.262;2022-08-03T16:11:56;2.27;;;1.47;;
26484;SDS011;18083;50.560;7.262;2022-08-03T16:14:24;2.20;;;2.00;;